首页
METAR-TAF:

METAR-TAF

机场 :

弗拉季高加索, 俄罗斯

纬度: 43-12-18N, 经度: 044-36-24E, 海拔: 510米

当前天气观测

该预报发布于20分钟前的03:30 UTC
静风
温度 1°C
湿度 100%
气压 1015 hPa
能見度: 0100

METAR: URMO 210330Z 00000MPS 0150 0100W R27/M0200N FG VV002 01/01 Q1015 NOSIG RMK QBB070 QFE717/0956

时间: 06:50 (03:50 UTC)

预报

该预报发布于13小时和50分钟前的14:00 UTC
预报有效从20日的 15点(UTC)到 20日的 24点(UTC)
风速8节,风向东转东北,有时为17节阵风
能见度10公里或以上
散云层高于4000英尺

TAF: URMO 201400Z 2015/2024 07004G09MPS 9999 SCT040

超过4000个机场的气象观测和天气预报(METAR&TAF报告)。

可查询的气象台以黄色和红色小点在地图上表示。

将鼠标移到小点上方,可查看气象台名称。

然后点击查看天气观测和预报。

如需切换地图:点击带黑十字的绿色按钮放大地图;点击带横线的绿色按钮缩小地图;或者点击绿色箭头查看邻近地区的地图。


METAR-TAF: